Grassland, Canada
Current Conditions -  °F | °C
As of 9:00 AM on Thursday 27 Nov 2014 (Local Time) from CYED Reporting Station
Light Snow Light Snow  
Wind Chill: -8°   Ceiling: 600
Heat Index: 10°   Visibility: 0.62mi
Dew Point:   Wind: 18mph
Humidity: 85%   Direction: 50°NE
Pressure: 30"   Gusts: 28mph
Location:  54.82°N, 112.69°W
Report Text: CYED 271600Z AUTO 05016G24KT 5/8SM -SN VV006 M12/M14 A3000 RMKSLP207
Loading
Personal Weather Stations






























Interactive Weather Map New forecast layout! Learn more

10-Day Weather Forecast

Advertisements
Track Severe Weather on mobile